sensor_id;sensor_type;location;lat;lon;timestamp;temperature;humidity
2997;DHT22;1508;48.744;9.110;2023-04-04T00:00:27;-0.10;99.90
2997;DHT22;1508;48.744;9.110;2023-04-04T00:03:13;-0.10;99.90
2997;DHT22;1508;48.744;9.110;2023-04-04T00:05:58;-0.10;99.90
2997;DHT22;1508;48.744;9.110;2023-04-04T00:08:44;-0.10;99.90
2997;DHT22;1508;48.744;9.110;2023-04-04T00:11:30;-0.20;99.90
2997;DHT22;1508;48.744;9.110;2023-04-04T00:14:16;-0.30;99.90
2997;DHT22;1508;48.744;9.110;2023-04-04T00:17:01;-0.30;99.90
2997;DHT22;1508;48.744;9.110;2023-04-04T00:19:47;-0.30;99.90
2997;DHT22;1508;48.744;9.110;2023-04-04T00:22:33;-0.40;99.90
2997;DHT22;1508;48.744;9.110;2023-04-04T00:25:19;-0.30;99.90
2997;DHT22;1508;48.744;9.110;2023-04-04T00:28:04;-0.40;99.90
2997;DHT22;1508;48.744;9.110;2023-04-04T00:30:50;-0.40;99.90
2997;DHT22;1508;48.744;9.110;2023-04-04T00:33:36;-0.50;99.90
2997;DHT22;1508;48.744;9.110;2023-04-04T00:36:21;-0.50;99.90
2997;DHT22;1508;48.744;9.110;2023-04-04T00:39:07;-0.50;99.90
2997;DHT22;1508;48.744;9.110;2023-04-04T00:41:53;-0.50;99.90
2997;DHT22;1508;48.744;9.110;2023-04-04T00:44:39;-0.50;99.90
2997;DHT22;1508;48.744;9.110;2023-04-04T00:47:25;-0.50;99.90
2997;DHT22;1508;48.744;9.110;2023-04-04T00:50:14;-0.40;99.90
2997;DHT22;1508;48.744;9.110;2023-04-04T00:53:00;-0.40;99.90
2997;DHT22;1508;48.744;9.110;2023-04-04T00:55:45;-0.50;99.90
2997;DHT22;1508;48.744;9.110;2023-04-04T00:58:31;-0.40;99.90
2997;DHT22;1508;48.744;9.110;2023-04-04T01:01:17;-0.40;99.90
2997;DHT22;1508;48.744;9.110;2023-04-04T01:04:03;-0.40;99.90
2997;DHT22;1508;48.744;9.110;2023-04-04T01:06:48;-0.40;99.90
2997;DHT22;1508;48.744;9.110;2023-04-04T01:09:34;-0.40;99.90
2997;DHT22;1508;48.744;9.110;2023-04-04T01:12:20;-0.50;99.90
2997;DHT22;1508;48.744;9.110;2023-04-04T01:15:06;-0.50;99.90
2997;DHT22;1508;48.744;9.110;2023-04-04T01:17:53;-0.50;99.90
2997;DHT22;1508;48.744;9.110;2023-04-04T01:20:41;-0.60;99.90
2997;DHT22;1508;48.744;9.110;2023-04-04T01:23:34;-0.60;99.90
2997;DHT22;1508;48.744;9.110;2023-04-04T01:26:21;-0.60;99.90
2997;DHT22;1508;48.744;9.110;2023-04-04T01:29:06;-0.60;99.90
2997;DHT22;1508;48.744;9.110;2023-04-04T01:31:55;-0.60;99.90
2997;DHT22;1508;48.744;9.110;2023-04-04T01:34:42;-0.60;99.90
2997;DHT22;1508;48.744;9.110;2023-04-04T01:37:37;-0.60;99.90
2997;DHT22;1508;48.744;9.110;2023-04-04T01:40:25;-0.60;99.90
2997;DHT22;1508;48.744;9.110;2023-04-04T01:43:12;-0.60;99.90
2997;DHT22;1508;48.744;9.110;2023-04-04T01:45:58;-0.70;99.90
2997;DHT22;1508;48.744;9.110;2023-04-04T01:48:44;-0.60;99.90
2997;DHT22;1508;48.744;9.110;2023-04-04T01:51:30;-0.70;99.90
2997;DHT22;1508;48.744;9.110;2023-04-04T01:54:16;-0.70;99.90
2997;DHT22;1508;48.744;9.110;2023-04-04T01:57:02;-0.80;99.90
2997;DHT22;1508;48.744;9.110;2023-04-04T01:59:48;-0.80;99.90
2997;DHT22;1508;48.744;9.110;2023-04-04T02:02:33;-0.90;99.90
2997;DHT22;1508;48.744;9.110;2023-04-04T02:05:19;-0.90;99.90
2997;DHT22;1508;48.744;9.110;2023-04-04T02:08:05;-0.90;99.90
2997;DHT22;1508;48.744;9.110;2023-04-04T02:10:51;-0.90;99.90
2997;DHT22;1508;48.744;9.110;2023-04-04T02:13:36;-1.00;99.90
2997;DHT22;1508;48.744;9.110;2023-04-04T02:16:22;-1.00;99.90
2997;DHT22;1508;48.744;9.110;2023-04-04T02:19:08;-1.10;99.90
2997;DHT22;1508;48.744;9.110;2023-04-04T02:21:54;-1.10;99.90
2997;DHT22;1508;48.744;9.110;2023-04-04T02:24:39;-1.10;99.90
2997;DHT22;1508;48.744;9.110;2023-04-04T02:27:25;-1.10;99.90
2997;DHT22;1508;48.744;9.110;2023-04-04T02:30:11;-1.20;99.90
2997;DHT22;1508;48.744;9.110;2023-04-04T02:32:57;-1.10;99.90
2997;DHT22;1508;48.744;9.110;2023-04-04T02:35:43;-1.20;99.90
2997;DHT22;1508;48.744;9.110;2023-04-04T02:38:28;-1.20;99.90
2997;DHT22;1508;48.744;9.110;2023-04-04T02:41:14;-1.20;99.90
2997;DHT22;1508;48.744;9.110;2023-04-04T02:44:00;-1.20;99.90
2997;DHT22;1508;48.744;9.110;2023-04-04T02:46:45;-1.30;99.90
2997;DHT22;1508;48.744;9.110;2023-04-04T02:49:31;-1.30;99.90
2997;DHT22;1508;48.744;9.110;2023-04-04T02:52:17;-1.40;99.90
2997;DHT22;1508;48.744;9.110;2023-04-04T02:55:05;-1.40;99.90
2997;DHT22;1508;48.744;9.110;2023-04-04T02:57:51;-1.30;99.90
2997;DHT22;1508;48.744;9.110;2023-04-04T03:00:37;-1.40;99.90
2997;DHT22;1508;48.744;9.110;2023-04-04T03:03:22;-1.40;99.90
2997;DHT22;1508;48.744;9.110;2023-04-04T03:06:08;-1.40;99.90
2997;DHT22;1508;48.744;9.110;2023-04-04T03:08:54;-1.40;99.90
2997;DHT22;1508;48.744;9.110;2023-04-04T03:11:40;-1.40;99.90
2997;DHT22;1508;48.744;9.110;2023-04-04T03:14:25;-1.40;99.90
2997;DHT22;1508;48.744;9.110;2023-04-04T03:17:11;-1.40;99.90
2997;DHT22;1508;48.744;9.110;2023-04-04T03:19:57;-1.40;99.90
2997;DHT22;1508;48.744;9.110;2023-04-04T03:22:42;-1.50;99.90
2997;DHT22;1508;48.744;9.110;2023-04-04T03:25:28;-1.50;99.90
2997;DHT22;1508;48.744;9.110;2023-04-04T03:28:14;-1.50;99.90
2997;DHT22;1508;48.744;9.110;2023-04-04T03:31:03;-1.50;99.90
2997;DHT22;1508;48.744;9.110;2023-04-04T03:33:49;-1.50;99.90
2997;DHT22;1508;48.744;9.110;2023-04-04T03:36:35;-1.50;99.90
2997;DHT22;1508;48.744;9.110;2023-04-04T03:39:20;-1.60;99.90
2997;DHT22;1508;48.744;9.110;2023-04-04T03:42:06;-1.60;99.90
2997;DHT22;1508;48.744;9.110;2023-04-04T03:44:52;-1.60;99.90
2997;DHT22;1508;48.744;9.110;2023-04-04T03:47:37;-1.60;99.90
2997;DHT22;1508;48.744;9.110;2023-04-04T03:50:23;-1.60;99.90
2997;DHT22;1508;48.744;9.110;2023-04-04T03:53:10;-1.60;99.90
2997;DHT22;1508;48.744;9.110;2023-04-04T03:55:56;-1.60;99.90
2997;DHT22;1508;48.744;9.110;2023-04-04T03:58:42;-1.70;99.90
2997;DHT22;1508;48.744;9.110;2023-04-04T04:01:28;-1.70;99.90
2997;DHT22;1508;48.744;9.110;2023-04-04T04:04:13;-1.60;99.90
2997;DHT22;1508;48.744;9.110;2023-04-04T04:06:59;-1.70;99.90
2997;DHT22;1508;48.744;9.110;2023-04-04T04:09:45;-1.70;99.90
2997;DHT22;1508;48.744;9.110;2023-04-04T04:12:31;-1.70;99.90
2997;DHT22;1508;48.744;9.110;2023-04-04T04:15:16;-1.70;99.90
2997;DHT22;1508;48.744;9.110;2023-04-04T04:18:02;-1.80;99.90
2997;DHT22;1508;48.744;9.110;2023-04-04T04:20:48;-1.80;99.90
2997;DHT22;1508;48.744;9.110;2023-04-04T04:23:34;-1.80;99.90
2997;DHT22;1508;48.744;9.110;2023-04-04T04:26:19;-1.80;99.90
2997;DHT22;1508;48.744;9.110;2023-04-04T04:29:05;-1.80;99.90
2997;DHT22;1508;48.744;9.110;2023-04-04T04:31:51;-1.80;99.90
2997;DHT22;1508;48.744;9.110;2023-04-04T04:34:37;-1.80;99.90
2997;DHT22;1508;48.744;9.110;2023-04-04T04:37:22;-1.80;99.90
2997;DHT22;1508;48.744;9.110;2023-04-04T04:40:08;-1.90;99.90
2997;DHT22;1508;48.744;9.110;2023-04-04T04:42:54;-1.90;99.90
2997;DHT22;1508;48.744;9.110;2023-04-04T04:45:40;-1.90;99.90
2997;DHT22;1508;48.744;9.110;2023-04-04T04:48:26;-1.90;99.90
2997;DHT22;1508;48.744;9.110;2023-04-04T04:51:11;-1.90;99.90
2997;DHT22;1508;48.744;9.110;2023-04-04T04:53:57;-1.90;99.90
2997;DHT22;1508;48.744;9.110;2023-04-04T04:56:43;-1.90;99.90
2997;DHT22;1508;48.744;9.110;2023-04-04T04:59:29;-1.90;99.90
2997;DHT22;1508;48.744;9.110;2023-04-04T05:02:14;-1.90;99.90
2997;DHT22;1508;48.744;9.110;2023-04-04T05:05:00;-1.90;99.90
2997;DHT22;1508;48.744;9.110;2023-04-04T05:07:46;-1.90;99.90
2997;DHT22;1508;48.744;9.110;2023-04-04T05:10:32;-1.80;99.90
2997;DHT22;1508;48.744;9.110;2023-04-04T05:13:17;-1.80;99.90
2997;DHT22;1508;48.744;9.110;2023-04-04T05:16:03;-1.80;99.90
2997;DHT22;1508;48.744;9.110;2023-04-04T05:18:49;-1.70;99.90
2997;DHT22;1508;48.744;9.110;2023-04-04T05:21:34;-1.60;99.90
2997;DHT22;1508;48.744;9.110;2023-04-04T05:24:20;-1.60;99.90
2997;DHT22;1508;48.744;9.110;2023-04-04T05:27:06;-1.50;99.90
2997;DHT22;1508;48.744;9.110;2023-04-04T05:29:52;-1.30;99.90
2997;DHT22;1508;48.744;9.110;2023-04-04T05:32:37;-1.20;99.90
2997;DHT22;1508;48.744;9.110;2023-04-04T05:35:23;-1.00;99.90
2997;DHT22;1508;48.744;9.110;2023-04-04T05:38:09;-0.90;99.90
2997;DHT22;1508;48.744;9.110;2023-04-04T05:40:55;-0.80;99.90
2997;DHT22;1508;48.744;9.110;2023-04-04T05:43:40;-0.20;99.90
2997;DHT22;1508;48.744;9.110;2023-04-04T05:46:26;-0.20;99.90
2997;DHT22;1508;48.744;9.110;2023-04-04T05:49:12;-0.10;99.90
2997;DHT22;1508;48.744;9.110;2023-04-04T05:51:57;0.10;99.90
2997;DHT22;1508;48.744;9.110;2023-04-04T05:54:43;0.30;99.90
2997;DHT22;1508;48.744;9.110;2023-04-04T05:57:29;0.50;99.90
2997;DHT22;1508;48.744;9.110;2023-04-04T06:00:15;0.90;99.90
2997;DHT22;1508;48.744;9.110;2023-04-04T06:03:01;1.30;99.90
2997;DHT22;1508;48.744;9.110;2023-04-04T06:05:50;1.60;99.90
2997;DHT22;1508;48.744;9.110;2023-04-04T06:08:36;1.80;99.90
2997;DHT22;1508;48.744;9.110;2023-04-04T06:11:22;1.50;99.90
2997;DHT22;1508;48.744;9.110;2023-04-04T06:14:08;1.40;99.90
2997;DHT22;1508;48.744;9.110;2023-04-04T06:16:53;1.30;99.90
2997;DHT22;1508;48.744;9.110;2023-04-04T06:19:39;1.20;99.90
2997;DHT22;1508;48.744;9.110;2023-04-04T06:22:25;1.40;99.90
2997;DHT22;1508;48.744;9.110;2023-04-04T06:25:11;2.30;99.90
2997;DHT22;1508;48.744;9.110;2023-04-04T06:27:56;3.40;99.90
2997;DHT22;1508;48.744;9.110;2023-04-04T06:30:42;3.30;99.90
2997;DHT22;1508;48.744;9.110;2023-04-04T06:33:28;2.70;99.90
2997;DHT22;1508;48.744;9.110;2023-04-04T06:36:14;2.00;99.90
2997;DHT22;1508;48.744;9.110;2023-04-04T06:39:00;1.70;99.90
2997;DHT22;1508;48.744;9.110;2023-04-04T06:41:45;1.50;99.90
2997;DHT22;1508;48.744;9.110;2023-04-04T06:44:31;1.30;99.90
2997;DHT22;1508;48.744;9.110;2023-04-04T06:47:17;1.30;99.90
2997;DHT22;1508;48.744;9.110;2023-04-04T06:50:03;1.20;99.90
2997;DHT22;1508;48.744;9.110;2023-04-04T06:52:48;1.20;99.90
2997;DHT22;1508;48.744;9.110;2023-04-04T06:55:34;1.30;99.90
2997;DHT22;1508;48.744;9.110;2023-04-04T06:58:20;1.40;99.90
2997;DHT22;1508;48.744;9.110;2023-04-04T07:01:06;1.40;99.90
2997;DHT22;1508;48.744;9.110;2023-04-04T07:03:52;1.40;99.90
2997;DHT22;1508;48.744;9.110;2023-04-04T07:06:38;1.50;99.90
2997;DHT22;1508;48.744;9.110;2023-04-04T07:09:23;1.30;99.90
2997;DHT22;1508;48.744;9.110;2023-04-04T07:12:09;1.30;99.90
2997;DHT22;1508;48.744;9.110;2023-04-04T07:14:55;1.60;99.90
2997;DHT22;1508;48.744;9.110;2023-04-04T07:17:41;1.70;99.90
2997;DHT22;1508;48.744;9.110;2023-04-04T07:20:26;1.70;99.90
2997;DHT22;1508;48.744;9.110;2023-04-04T07:23:12;1.70;99.90
2997;DHT22;1508;48.744;9.110;2023-04-04T07:25:58;1.70;99.90
2997;DHT22;1508;48.744;9.110;2023-04-04T07:28:44;2.00;99.90
2997;DHT22;1508;48.744;9.110;2023-04-04T07:31:29;1.70;99.90
2997;DHT22;1508;48.744;9.110;2023-04-04T07:34:15;1.80;99.90
2997;DHT22;1508;48.744;9.110;2023-04-04T07:37:01;2.00;99.90
2997;DHT22;1508;48.744;9.110;2023-04-04T07:39:47;2.10;99.90
2997;DHT22;1508;48.744;9.110;2023-04-04T07:42:32;2.40;99.90
2997;DHT22;1508;48.744;9.110;2023-04-04T07:45:18;2.40;99.90
2997;DHT22;1508;48.744;9.110;2023-04-04T07:48:04;2.50;99.90
2997;DHT22;1508;48.744;9.110;2023-04-04T07:50:50;2.50;99.90
2997;DHT22;1508;48.744;9.110;2023-04-04T07:53:35;2.50;99.90
2997;DHT22;1508;48.744;9.110;2023-04-04T07:56:21;2.70;99.90
2997;DHT22;1508;48.744;9.110;2023-04-04T07:59:07;2.80;99.90
2997;DHT22;1508;48.744;9.110;2023-04-04T08:01:53;3.10;99.90
2997;DHT22;1508;48.744;9.110;2023-04-04T08:04:38;3.20;99.90
2997;DHT22;1508;48.744;9.110;2023-04-04T08:07:24;3.00;99.90
2997;DHT22;1508;48.744;9.110;2023-04-04T08:10:10;3.20;99.90
2997;DHT22;1508;48.744;9.110;2023-04-04T08:12:56;3.30;99.90
2997;DHT22;1508;48.744;9.110;2023-04-04T08:15:41;3.60;99.90
2997;DHT22;1508;48.744;9.110;2023-04-04T08:18:28;3.50;99.90
2997;DHT22;1508;48.744;9.110;2023-04-04T08:21:13;3.60;99.90
2997;DHT22;1508;48.744;9.110;2023-04-04T08:23:59;3.90;99.90
2997;DHT22;1508;48.744;9.110;2023-04-04T08:26:45;3.80;99.90
2997;DHT22;1508;48.744;9.110;2023-04-04T08:29:31;4.00;99.90
2997;DHT22;1508;48.744;9.110;2023-04-04T08:32:16;4.40;99.90
2997;DHT22;1508;48.744;9.110;2023-04-04T08:35:02;4.40;99.90
2997;DHT22;1508;48.744;9.110;2023-04-04T08:37:48;4.50;99.90
2997;DHT22;1508;48.744;9.110;2023-04-04T08:40:34;4.60;99.90
2997;DHT22;1508;48.744;9.110;2023-04-04T08:43:19;4.70;99.90
2997;DHT22;1508;48.744;9.110;2023-04-04T08:46:06;4.90;99.90
2997;DHT22;1508;48.744;9.110;2023-04-04T08:48:52;5.00;99.90
2997;DHT22;1508;48.744;9.110;2023-04-04T08:51:38;5.20;99.90
2997;DHT22;1508;48.744;9.110;2023-04-04T08:54:24;5.20;99.90
2997;DHT22;1508;48.744;9.110;2023-04-04T08:57:10;5.50;99.90
2997;DHT22;1508;48.744;9.110;2023-04-04T08:59:56;5.70;99.90
2997;DHT22;1508;48.744;9.110;2023-04-04T09:02:47;5.20;99.90
2997;DHT22;1508;48.744;9.110;2023-04-04T09:05:34;4.60;99.90
2997;DHT22;1508;48.744;9.110;2023-04-04T09:08:20;4.30;99.90
2997;DHT22;1508;48.744;9.110;2023-04-04T09:11:06;4.40;99.90
2997;DHT22;1508;48.744;9.110;2023-04-04T09:13:52;4.80;99.90
2997;DHT22;1508;48.744;9.110;2023-04-04T09:16:39;5.00;99.90
2997;DHT22;1508;48.744;9.110;2023-04-04T09:19:25;5.10;99.90
2997;DHT22;1508;48.744;9.110;2023-04-04T09:22:10;5.00;99.90
2997;DHT22;1508;48.744;9.110;2023-04-04T09:24:56;4.90;99.90
2997;DHT22;1508;48.744;9.110;2023-04-04T09:27:43;4.90;99.90
2997;DHT22;1508;48.744;9.110;2023-04-04T09:30:29;4.70;99.90
2997;DHT22;1508;48.744;9.110;2023-04-04T09:33:16;4.90;99.90
2997;DHT22;1508;48.744;9.110;2023-04-04T09:36:03;4.90;99.90
2997;DHT22;1508;48.744;9.110;2023-04-04T09:38:51;4.80;99.90
2997;DHT22;1508;48.744;9.110;2023-04-04T09:41:37;4.30;99.90
2997;DHT22;1508;48.744;9.110;2023-04-04T09:44:23;4.60;99.90
2997;DHT22;1508;48.744;9.110;2023-04-04T09:47:22;4.60;99.90
2997;DHT22;1508;48.744;9.110;2023-04-04T09:50:08;4.80;99.90
2997;DHT22;1508;48.744;9.110;2023-04-04T09:52:57;4.70;99.90
2997;DHT22;1508;48.744;9.110;2023-04-04T09:55:48;4.90;99.90
2997;DHT22;1508;48.744;9.110;2023-04-04T09:58:33;4.50;99.90
2997;DHT22;1508;48.744;9.110;2023-04-04T10:01:20;4.60;99.90
2997;DHT22;1508;48.744;9.110;2023-04-04T10:04:08;4.90;99.90
2997;DHT22;1508;48.744;9.110;2023-04-04T10:06:53;5.40;99.90
2997;DHT22;1508;48.744;9.110;2023-04-04T10:09:39;5.10;99.90
2997;DHT22;1508;48.744;9.110;2023-04-04T10:12:25;5.00;99.90
2997;DHT22;1508;48.744;9.110;2023-04-04T10:15:11;5.40;99.90
2997;DHT22;1508;48.744;9.110;2023-04-04T10:17:57;5.20;99.90
2997;DHT22;1508;48.744;9.110;2023-04-04T10:20:43;5.40;99.90
2997;DHT22;1508;48.744;9.110;2023-04-04T10:23:28;5.30;99.90
2997;DHT22;1508;48.744;9.110;2023-04-04T10:26:14;5.60;99.90
2997;DHT22;1508;48.744;9.110;2023-04-04T10:29:00;5.60;99.90
2997;DHT22;1508;48.744;9.110;2023-04-04T10:31:46;5.30;99.90
2997;DHT22;1508;48.744;9.110;2023-04-04T10:34:39;5.30;99.90
2997;DHT22;1508;48.744;9.110;2023-04-04T10:37:26;5.40;99.90
2997;DHT22;1508;48.744;9.110;2023-04-04T10:40:14;5.20;99.90
2997;DHT22;1508;48.744;9.110;2023-04-04T10:43:01;5.10;99.90
2997;DHT22;1508;48.744;9.110;2023-04-04T10:45:47;5.50;99.90
2997;DHT22;1508;48.744;9.110;2023-04-04T10:48:33;5.60;99.90
2997;DHT22;1508;48.744;9.110;2023-04-04T10:51:19;5.40;99.90
2997;DHT22;1508;48.744;9.110;2023-04-04T10:54:05;5.80;99.90
2997;DHT22;1508;48.744;9.110;2023-04-04T10:56:51;6.00;99.90
2997;DHT22;1508;48.744;9.110;2023-04-04T11:02:42;6.00;99.90
2997;DHT22;1508;48.744;9.110;2023-04-04T11:08:17;6.20;99.90
2997;DHT22;1508;48.744;9.110;2023-04-04T11:11:03;6.30;99.90
2997;DHT22;1508;48.744;9.110;2023-04-04T11:13:58;6.10;99.90
2997;DHT22;1508;48.744;9.110;2023-04-04T11:16:47;6.10;99.90
2997;DHT22;1508;48.744;9.110;2023-04-04T11:19:35;6.20;99.90
2997;DHT22;1508;48.744;9.110;2023-04-04T11:22:24;6.10;99.90
2997;DHT22;1508;48.744;9.110;2023-04-04T11:25:29;6.20;99.90
2997;DHT22;1508;48.744;9.110;2023-04-04T11:28:25;6.40;99.90
2997;DHT22;1508;48.744;9.110;2023-04-04T11:34:06;6.20;99.90
2997;DHT22;1508;48.744;9.110;2023-04-04T11:36:52;6.50;99.90
2997;DHT22;1508;48.744;9.110;2023-04-04T11:39:45;6.80;99.90
2997;DHT22;1508;48.744;9.110;2023-04-04T11:42:35;6.90;99.90
2997;DHT22;1508;48.744;9.110;2023-04-04T11:45:24;6.90;99.90
2997;DHT22;1508;48.744;9.110;2023-04-04T11:48:10;6.50;99.90
2997;DHT22;1508;48.744;9.110;2023-04-04T11:50:57;6.30;99.90
2997;DHT22;1508;48.744;9.110;2023-04-04T11:53:42;6.60;99.90
2997;DHT22;1508;48.744;9.110;2023-04-04T11:56:32;6.80;99.90
2997;DHT22;1508;48.744;9.110;2023-04-04T11:59:18;6.60;99.90
2997;DHT22;1508;48.744;9.110;2023-04-04T12:02:04;7.00;99.90
2997;DHT22;1508;48.744;9.110;2023-04-04T12:04:50;6.80;99.90
2997;DHT22;1508;48.744;9.110;2023-04-04T12:07:36;7.00;99.90
2997;DHT22;1508;48.744;9.110;2023-04-04T12:10:22;7.00;99.90
2997;DHT22;1508;48.744;9.110;2023-04-04T12:13:08;6.70;99.70
2997;DHT22;1508;48.744;9.110;2023-04-04T12:15:54;6.80;99.90
2997;DHT22;1508;48.744;9.110;2023-04-04T12:18:40;6.80;99.40
2997;DHT22;1508;48.744;9.110;2023-04-04T12:21:26;6.80;99.90
2997;DHT22;1508;48.744;9.110;2023-04-04T12:24:12;6.90;99.40
2997;DHT22;1508;48.744;9.110;2023-04-04T12:26:58;6.80;99.90
2997;DHT22;1508;48.744;9.110;2023-04-04T12:29:44;6.90;99.90
2997;DHT22;1508;48.744;9.110;2023-04-04T12:32:30;6.90;99.60
2997;DHT22;1508;48.744;9.110;2023-04-04T12:35:16;7.00;98.80
2997;DHT22;1508;48.744;9.110;2023-04-04T12:38:02;6.80;97.70
2997;DHT22;1508;48.744;9.110;2023-04-04T12:40:48;6.90;99.00
2997;DHT22;1508;48.744;9.110;2023-04-04T12:43:35;6.80;98.20
2997;DHT22;1508;48.744;9.110;2023-04-04T12:46:25;7.00;99.30
2997;DHT22;1508;48.744;9.110;2023-04-04T12:49:12;6.80;98.70
2997;DHT22;1508;48.744;9.110;2023-04-04T12:51:58;6.90;99.20
2997;DHT22;1508;48.744;9.110;2023-04-04T12:54:44;7.00;98.70
2997;DHT22;1508;48.744;9.110;2023-04-04T12:57:30;7.10;99.20
2997;DHT22;1508;48.744;9.110;2023-04-04T13:00:16;7.30;99.50
2997;DHT22;1508;48.744;9.110;2023-04-04T13:03:03;7.50;98.90
2997;DHT22;1508;48.744;9.110;2023-04-04T13:05:49;7.30;98.90
2997;DHT22;1508;48.744;9.110;2023-04-04T13:08:35;7.50;99.30
2997;DHT22;1508;48.744;9.110;2023-04-04T13:11:20;7.50;98.70
2997;DHT22;1508;48.744;9.110;2023-04-04T13:14:06;7.30;98.20
2997;DHT22;1508;48.744;9.110;2023-04-04T13:17:02;7.40;98.60
2997;DHT22;1508;48.744;9.110;2023-04-04T13:19:48;7.50;99.40
2997;DHT22;1508;48.744;9.110;2023-04-04T13:22:37;7.70;98.70
2997;DHT22;1508;48.744;9.110;2023-04-04T13:25:23;7.80;99.40
2997;DHT22;1508;48.744;9.110;2023-04-04T13:28:09;7.80;99.70
2997;DHT22;1508;48.744;9.110;2023-04-04T13:30:55;7.70;99.10
2997;DHT22;1508;48.744;9.110;2023-04-04T13:33:40;7.40;99.30
2997;DHT22;1508;48.744;9.110;2023-04-04T13:36:26;7.30;99.30
2997;DHT22;1508;48.744;9.110;2023-04-04T13:39:12;7.00;98.50
2997;DHT22;1508;48.744;9.110;2023-04-04T13:41:57;7.20;98.90
2997;DHT22;1508;48.744;9.110;2023-04-04T13:44:43;7.40;99.10
2997;DHT22;1508;48.744;9.110;2023-04-04T13:47:29;7.70;99.10
2997;DHT22;1508;48.744;9.110;2023-04-04T13:50:15;7.20;97.60
2997;DHT22;1508;48.744;9.110;2023-04-04T13:53:00;7.10;98.90
2997;DHT22;1508;48.744;9.110;2023-04-04T13:55:46;7.20;99.10
2997;DHT22;1508;48.744;9.110;2023-04-04T13:58:32;7.40;98.70
2997;DHT22;1508;48.744;9.110;2023-04-04T14:01:18;7.50;98.40
2997;DHT22;1508;48.744;9.110;2023-04-04T14:04:03;7.30;98.00
2997;DHT22;1508;48.744;9.110;2023-04-04T14:06:49;7.20;97.90
2997;DHT22;1508;48.744;9.110;2023-04-04T14:09:35;7.40;97.90
2997;DHT22;1508;48.744;9.110;2023-04-04T14:12:21;7.30;97.60
2997;DHT22;1508;48.744;9.110;2023-04-04T14:15:06;7.20;98.00
2997;DHT22;1508;48.744;9.110;2023-04-04T14:17:52;7.20;97.20
2997;DHT22;1508;48.744;9.110;2023-04-04T14:20:38;7.30;97.90
2997;DHT22;1508;48.744;9.110;2023-04-04T14:23:24;7.40;97.60
2997;DHT22;1508;48.744;9.110;2023-04-04T14:26:09;7.30;97.90
2997;DHT22;1508;48.744;9.110;2023-04-04T14:28:55;7.40;97.60
2997;DHT22;1508;48.744;9.110;2023-04-04T14:31:41;7.40;97.30
2997;DHT22;1508;48.744;9.110;2023-04-04T14:34:27;7.40;97.30
2997;DHT22;1508;48.744;9.110;2023-04-04T14:37:12;7.50;97.50
2997;DHT22;1508;48.744;9.110;2023-04-04T14:39:58;7.60;97.30
2997;DHT22;1508;48.744;9.110;2023-04-04T14:42:44;7.20;96.50
2997;DHT22;1508;48.744;9.110;2023-04-04T14:45:30;7.30;98.40
2997;DHT22;1508;48.744;9.110;2023-04-04T14:48:15;7.40;98.40
2997;DHT22;1508;48.744;9.110;2023-04-04T14:51:01;7.60;97.80
2997;DHT22;1508;48.744;9.110;2023-04-04T14:53:47;7.60;97.20
2997;DHT22;1508;48.744;9.110;2023-04-04T14:56:32;7.50;97.10
2997;DHT22;1508;48.744;9.110;2023-04-04T14:59:18;7.50;97.60
2997;DHT22;1508;48.744;9.110;2023-04-04T15:02:04;7.40;97.00
2997;DHT22;1508;48.744;9.110;2023-04-04T15:04:50;7.20;97.40
2997;DHT22;1508;48.744;9.110;2023-04-04T15:07:35;7.00;97.20
2997;DHT22;1508;48.744;9.110;2023-04-04T15:10:21;6.90;97.20
2997;DHT22;1508;48.744;9.110;2023-04-04T15:13:07;6.90;97.10
2997;DHT22;1508;48.744;9.110;2023-04-04T15:15:53;7.00;97.40
2997;DHT22;1508;48.744;9.110;2023-04-04T15:18:38;7.10;96.90
2997;DHT22;1508;48.744;9.110;2023-04-04T15:21:24;7.10;97.20
2997;DHT22;1508;48.744;9.110;2023-04-04T15:24:10;7.20;97.30
2997;DHT22;1508;48.744;9.110;2023-04-04T15:26:56;7.30;97.50
2997;DHT22;1508;48.744;9.110;2023-04-04T15:29:41;7.50;97.50
2997;DHT22;1508;48.744;9.110;2023-04-04T15:32:27;7.40;96.70
2997;DHT22;1508;48.744;9.110;2023-04-04T15:35:17;7.40;96.90
2997;DHT22;1508;48.744;9.110;2023-04-04T15:38:03;7.20;96.60
2997;DHT22;1508;48.744;9.110;2023-04-04T15:40:49;7.20;96.50
2997;DHT22;1508;48.744;9.110;2023-04-04T15:43:35;7.20;96.90
2997;DHT22;1508;48.744;9.110;2023-04-04T15:46:21;7.10;97.10
2997;DHT22;1508;48.744;9.110;2023-04-04T15:49:06;7.00;97.00
2997;DHT22;1508;48.744;9.110;2023-04-04T15:51:52;7.10;97.60
2997;DHT22;1508;48.744;9.110;2023-04-04T15:54:38;7.30;97.80
2997;DHT22;1508;48.744;9.110;2023-04-04T15:57:24;7.40;97.20
2997;DHT22;1508;48.744;9.110;2023-04-04T16:00:10;7.40;97.60
2997;DHT22;1508;48.744;9.110;2023-04-04T16:02:56;7.40;97.70
2997;DHT22;1508;48.744;9.110;2023-04-04T16:05:43;7.10;97.40
2997;DHT22;1508;48.744;9.110;2023-04-04T16:08:28;7.10;97.90
2997;DHT22;1508;48.744;9.110;2023-04-04T16:11:14;6.90;97.50
2997;DHT22;1508;48.744;9.110;2023-04-04T16:14:00;6.70;98.10
2997;DHT22;1508;48.744;9.110;2023-04-04T16:16:46;6.60;98.10
2997;DHT22;1508;48.744;9.110;2023-04-04T16:19:31;6.50;98.60
2997;DHT22;1508;48.744;9.110;2023-04-04T16:22:17;6.70;99.00
2997;DHT22;1508;48.744;9.110;2023-04-04T16:25:03;6.60;98.70
2997;DHT22;1508;48.744;9.110;2023-04-04T16:27:49;6.60;98.50
2997;DHT22;1508;48.744;9.110;2023-04-04T16:30:35;6.40;98.60
2997;DHT22;1508;48.744;9.110;2023-04-04T16:33:21;6.30;98.70
2997;DHT22;1508;48.744;9.110;2023-04-04T16:36:06;6.30;99.20
2997;DHT22;1508;48.744;9.110;2023-04-04T16:38:52;6.30;99.40
2997;DHT22;1508;48.744;9.110;2023-04-04T16:41:38;6.20;99.20
2997;DHT22;1508;48.744;9.110;2023-04-04T16:44:24;6.20;99.40
2997;DHT22;1508;48.744;9.110;2023-04-04T16:47:09;6.20;99.10
2997;DHT22;1508;48.744;9.110;2023-04-04T16:49:55;6.10;99.40
2997;DHT22;1508;48.744;9.110;2023-04-04T16:52:41;5.90;99.30
2997;DHT22;1508;48.744;9.110;2023-04-04T16:55:27;5.90;99.40
2997;DHT22;1508;48.744;9.110;2023-04-04T16:58:12;5.90;99.90
2997;DHT22;1508;48.744;9.110;2023-04-04T17:00:58;5.90;99.90
2997;DHT22;1508;48.744;9.110;2023-04-04T17:03:44;5.80;99.90
2997;DHT22;1508;48.744;9.110;2023-04-04T17:06:30;5.80;99.90
2997;DHT22;1508;48.744;9.110;2023-04-04T17:09:15;5.80;99.90
2997;DHT22;1508;48.744;9.110;2023-04-04T17:12:01;5.70;99.90
2997;DHT22;1508;48.744;9.110;2023-04-04T17:14:47;5.60;99.90
2997;DHT22;1508;48.744;9.110;2023-04-04T17:17:33;5.50;99.90
2997;DHT22;1508;48.744;9.110;2023-04-04T17:20:19;5.40;99.90
2997;DHT22;1508;48.744;9.110;2023-04-04T17:23:04;5.40;99.90
2997;DHT22;1508;48.744;9.110;2023-04-04T17:25:50;5.40;99.90
2997;DHT22;1508;48.744;9.110;2023-04-04T17:28:36;5.30;99.90
2997;DHT22;1508;48.744;9.110;2023-04-04T17:31:22;5.20;99.90
2997;DHT22;1508;48.744;9.110;2023-04-04T17:34:07;5.10;99.90
2997;DHT22;1508;48.744;9.110;2023-04-04T17:36:53;5.10;99.90
2997;DHT22;1508;48.744;9.110;2023-04-04T17:39:39;5.00;99.90
2997;DHT22;1508;48.744;9.110;2023-04-04T17:42:25;5.00;99.90
2997;DHT22;1508;48.744;9.110;2023-04-04T17:45:10;4.90;99.90
2997;DHT22;1508;48.744;9.110;2023-04-04T17:47:56;4.80;99.90
2997;DHT22;1508;48.744;9.110;2023-04-04T17:50:42;4.70;99.90
2997;DHT22;1508;48.744;9.110;2023-04-04T17:53:28;4.70;99.90
2997;DHT22;1508;48.744;9.110;2023-04-04T17:56:14;4.60;99.90
2997;DHT22;1508;48.744;9.110;2023-04-04T17:58:59;4.60;99.90
2997;DHT22;1508;48.744;9.110;2023-04-04T18:01:45;4.50;99.90
2997;DHT22;1508;48.744;9.110;2023-04-04T18:04:31;4.50;99.90
2997;DHT22;1508;48.744;9.110;2023-04-04T18:07:17;4.40;99.90
2997;DHT22;1508;48.744;9.110;2023-04-04T18:10:02;4.40;99.90
2997;DHT22;1508;48.744;9.110;2023-04-04T18:12:48;4.40;99.90
2997;DHT22;1508;48.744;9.110;2023-04-04T18:15:34;4.30;99.90
2997;DHT22;1508;48.744;9.110;2023-04-04T18:18:20;4.20;99.90
2997;DHT22;1508;48.744;9.110;2023-04-04T18:21:06;4.20;99.90
2997;DHT22;1508;48.744;9.110;2023-04-04T18:23:52;4.20;99.90